Time;durP1;ratioP1;P1;durP2;ratioP2;P2;SDS_P1;SDS_P2;PMS_P1;PMS_P2;Temp;Humidity;BMP_temperature;BMP_pressure;BME280_temperature;BME280_humidity;BME280_pressure;Samples;Min_cycle;Max_cycle;Signal;HPM_P1;HPM_P2
2023/04/14 00:01:15;;;;;;;1.98;1.00;;;8.10;79.20;;;;;;4956239;28;20039;-62
2023/04/14 00:03:41;;;;;;;1.30;1.00;;;8.10;79.10;;;;;;4955948;28;20041;-62
2023/04/14 00:06:06;;;;;;;2.05;1.00;;;8.10;79.20;;;;;;4958199;28;20043;-63
2023/04/14 00:08:32;;;;;;;1.80;0.88;;;8.10;80.10;;;;;;4955424;28;20060;-61
2023/04/14 00:10:58;;;;;;;1.33;1.10;;;8.10;79.30;;;;;;4956886;28;20054;-62
2023/04/14 00:13:23;;;;;;;1.52;0.90;;;8.10;79.30;;;;;;4956406;28;20528;-62
2023/04/14 00:15:49;;;;;;;1.85;0.90;;;8.10;79.40;;;;;;4955961;28;20284;-62
2023/04/14 00:18:14;;;;;;;3.00;1.10;;;8.10;79.30;;;;;;4954750;28;20500;-62
2023/04/14 00:20:40;;;;;;;2.78;1.08;;;8.10;79.30;;;;;;4957150;28;20039;-63
2023/04/14 00:23:05;;;;;;;1.98;1.05;;;8.10;79.30;;;;;;4958279;28;20034;-62
2023/04/14 00:25:31;;;;;;;1.77;0.88;;;8.10;79.20;;;;;;4958547;28;20039;-62
2023/04/14 00:27:56;;;;;;;3.10;1.10;;;8.10;79.10;;;;;;4962005;28;20050;-62
2023/04/14 00:30:22;;;;;;;1.48;1.20;;;8.10;79.00;;;;;;4962881;28;20069;-62
2023/04/14 00:32:47;;;;;;;1.40;1.30;;;8.10;79.10;;;;;;4955580;28;20404;-62
2023/04/14 00:35:13;;;;;;;3.25;1.30;;;8.10;79.10;;;;;;4955177;28;20077;-61
2023/04/14 00:37:39;;;;;;;1.98;1.40;;;8.10;79.10;;;;;;4956385;28;20281;-63
2023/04/14 00:40:08;;;;;;;1.88;0.98;;;8.10;79.00;;;;;;4955560;28;20139;-63
2023/04/14 00:42:41;;;;;;;1.38;1.20;;;8.10;79.10;;;;;;4937386;28;20043;-63
2023/04/14 00:45:07;;;;;;;3.38;1.73;;;8.10;79.30;;;;;;4956756;28;20634;-62
2023/04/14 00:47:33;;;;;;;1.63;1.35;;;8.10;79.10;;;;;;4960585;28;20049;-61
2023/04/14 00:49:58;;;;;;;2.65;1.52;;;8.00;79.10;;;;;;4959736;28;20517;-63
2023/04/14 00:52:24;;;;;;;1.58;1.33;;;8.10;79.30;;;;;;4955222;28;20097;-62
2023/04/14 00:54:50;;;;;;;3.15;1.55;;;8.00;79.40;;;;;;4953727;28;20043;-62
2023/04/14 00:57:16;;;;;;;1.95;1.52;;;8.00;79.40;;;;;;4955012;28;20042;-63
2023/04/14 00:59:42;;;;;;;1.75;1.30;;;8.00;79.40;;;;;;4954100;28;20521;-62
2023/04/14 01:02:07;;;;;;;2.53;1.60;;;8.00;79.50;;;;;;4959439;28;20042;-63
2023/04/14 01:04:33;;;;;;;1.65;1.42;;;7.90;79.60;;;;;;4956826;28;20039;-60
2023/04/14 01:06:59;;;;;;;2.80;1.40;;;8.00;79.60;;;;;;4953504;28;20035;-62
2023/04/14 01:09:25;;;;;;;4.15;1.70;;;8.00;79.80;;;;;;4959913;28;20458;-62
2023/04/14 01:12:05;;;;;;;2.90;1.60;;;7.90;79.60;;;;;;4956167;28;20114;-62
2023/04/14 01:14:42;;;;;;;3.53;1.42;;;7.90;79.90;;;;;;4954702;28;20038;-62
2023/04/14 01:17:49;;;;;;;3.05;1.50;;;8.00;80.70;;;;;;4954501;28;20034;-60
2023/04/14 01:20:48;;;;;;;2.17;1.30;;;7.90;80.00;;;;;;4958284;28;20059;-62
2023/04/14 01:23:21;;;;;;;1.60;1.20;;;7.90;80.00;;;;;;4955829;28;20266;-62
2023/04/14 01:25:46;;;;;;;4.47;1.80;;;7.90;79.60;;;;;;4956527;28;20046;-60
2023/04/14 01:28:37;;;;;;;1.92;1.60;;;7.90;79.50;;;;;;4958798;28;20043;-61
2023/04/14 01:31:11;;;;;;;2.42;1.55;;;7.90;79.60;;;;;;4958129;28;20042;-62
2023/04/14 01:33:40;;;;;;;3.55;1.45;;;7.90;80.50;;;;;;4955851;28;20032;-61
2023/04/14 01:36:12;;;;;;;1.70;1.40;;;7.90;79.50;;;;;;4956820;28;20126;-62
2023/04/14 01:38:39;;;;;;;2.85;1.63;;;7.90;79.60;;;;;;4954358;28;20085;-62
2023/04/14 01:41:08;;;;;;;2.35;1.50;;;7.90;79.60;;;;;;4956650;28;20043;-62
2023/04/14 01:43:38;;;;;;;2.47;1.45;;;7.90;79.60;;;;;;4955335;28;20454;-62
2023/04/14 01:46:12;;;;;;;2.47;1.45;;;7.80;79.70;;;;;;4954822;28;20110;-63
2023/04/14 01:48:39;;;;;;;3.10;1.60;;;7.80;79.80;;;;;;4955805;28;20500;-63
2023/04/14 01:51:06;;;;;;;2.22;1.60;;;7.80;79.60;;;;;;4957578;28;20522;-62
2023/04/14 01:53:34;;;;;;;3.00;1.67;;;7.80;79.60;;;;;;4954635;28;20030;-61
2023/04/14 01:56:02;;;;;;;2.33;1.42;;;7.80;79.80;;;;;;4955903;28;20458;-62
2023/04/14 01:58:29;;;;;;;2.80;1.35;;;7.80;80.60;;;;;;4952930;28;20038;-62
2023/04/14 02:00:57;;;;;;;2.58;1.70;;;7.80;79.90;;;;;;4954490;28;20043;-61
2023/04/14 02:03:24;;;;;;;2.17;1.63;;;7.80;79.80;;;;;;4953416;28;20047;-62
2023/04/14 02:05:52;;;;;;;2.00;1.42;;;7.80;79.80;;;;;;4955725;28;20039;-63
2023/04/14 02:08:20;;;;;;;2.72;1.55;;;7.80;79.80;;;;;;4953751;28;20043;-62
2023/04/14 02:10:47;;;;;;;5.03;1.67;;;7.80;79.80;;;;;;4956049;28;20035;-62
2023/04/14 02:13:17;;;;;;;3.33;1.58;;;7.70;79.80;;;;;;4953217;28;20046;-62
2023/04/14 02:15:43;;;;;;;2.55;1.48;;;7.70;79.80;;;;;;4953416;28;20031;-62
2023/04/14 02:18:09;;;;;;;2.65;1.80;;;7.80;79.80;;;;;;4955855;28;20035;-62
2023/04/14 02:20:41;;;;;;;3.58;1.70;;;7.80;79.80;;;;;;4954306;28;20045;-62
2023/04/14 02:23:07;;;;;;;4.40;1.75;;;7.80;79.70;;;;;;4952981;28;20081;-62
2023/04/14 02:25:34;;;;;;;4.78;1.63;;;7.80;79.60;;;;;;4954613;28;20118;-63
2023/04/14 02:28:05;;;;;;;3.22;1.73;;;7.70;79.60;;;;;;4953196;28;20047;-62
2023/04/14 02:30:34;;;;;;;2.85;1.70;;;7.80;79.70;;;;;;4953632;28;20039;-63
2023/04/14 02:33:06;;;;;;;2.38;1.48;;;7.70;79.60;;;;;;4953641;28;20046;-62
2023/04/14 02:35:40;;;;;;;4.13;1.70;;;7.70;79.80;;;;;;4952736;28;20410;-63
2023/04/14 02:38:22;;;;;;;2.53;1.67;;;7.70;79.70;;;;;;4953269;28;20039;-62
2023/04/14 02:40:49;;;;;;;3.47;1.70;;;7.70;79.80;;;;;;4953252;28;20125;-62
2023/04/14 02:43:29;;;;;;;3.78;1.75;;;7.70;79.60;;;;;;4954264;28;20577;-63
2023/04/14 02:45:57;;;;;;;3.30;1.83;;;7.70;80.00;;;;;;4952020;28;20047;-62
2023/04/14 02:48:25;;;;;;;3.17;1.55;;;7.70;79.60;;;;;;4956149;28;20085;-61
2023/04/14 02:50:53;;;;;;;3.65;1.90;;;7.70;79.60;;;;;;4953213;28;20066;-62
2023/04/14 02:53:24;;;;;;;2.42;1.63;;;7.70;79.70;;;;;;4956285;28;20500;-62
2023/04/14 02:55:51;;;;;;;2.40;1.73;;;7.80;79.80;;;;;;4953294;28;20042;-62
2023/04/14 02:58:17;;;;;;;4.10;2.40;;;7.70;79.60;;;;;;4952317;28;20495;-62
2023/04/14 03:00:45;;;;;;;3.58;2.30;;;7.80;79.50;;;;;;4954914;28;20535;-63
2023/04/14 03:03:11;;;;;;;5.10;2.38;;;7.80;79.40;;;;;;4955106;28;20566;-62
2023/04/14 03:05:39;;;;;;;3.22;1.73;;;7.70;79.30;;;;;;4955597;28;20042;-62
2023/04/14 03:08:07;;;;;;;3.30;2.10;;;7.70;79.40;;;;;;4954618;28;20047;-61
2023/04/14 03:10:33;;;;;;;4.40;2.30;;;7.70;79.40;;;;;;4953791;28;20041;-62
2023/04/14 03:13:02;;;;;;;4.10;2.20;;;7.70;79.40;;;;;;4951766;28;20051;-62
2023/04/14 03:15:30;;;;;;;3.15;2.03;;;7.60;79.40;;;;;;4951218;28;20547;-63
2023/04/14 03:17:57;;;;;;;4.95;2.15;;;7.60;79.60;;;;;;4954074;28;20035;-62
2023/04/14 03:20:24;;;;;;;4.93;2.13;;;7.60;79.70;;;;;;4956802;28;20034;-62
2023/04/14 03:23:03;;;;;;;4.65;2.10;;;7.50;79.90;;;;;;4956934;28;20043;-62
2023/04/14 03:25:31;;;;;;;5.78;1.98;;;7.50;79.90;;;;;;4951396;28;20773;-61
2023/04/14 03:28:00;;;;;;;3.38;1.73;;;7.50;80.10;;;;;;4956819;28;20038;-63
2023/04/14 03:30:29;;;;;;;5.15;2.22;;;7.40;80.20;;;;;;4957823;28;20101;-62
2023/04/14 03:32:59;;;;;;;4.22;1.98;;;7.40;80.30;;;;;;4952166;28;20035;-62
2023/04/14 03:35:27;;;;;;;4.82;2.40;;;7.40;80.60;;;;;;4952363;28;20070;-63
2023/04/14 03:37:58;;;;;;;4.10;1.98;;;7.40;80.60;;;;;;4952108;28;20704;-62
2023/04/14 03:40:29;;;;;;;5.28;2.33;;;7.40;80.80;;;;;;4952205;28;20129;-62
2023/04/14 03:42:57;;;;;;;4.10;2.38;;;7.40;81.00;;;;;;4954152;28;20039;-62
2023/04/14 03:45:24;;;;;;;4.05;2.20;;;7.40;81.20;;;;;;4952487;28;20031;-63
2023/04/14 03:47:54;;;;;;;4.97;2.13;;;7.40;81.30;;;;;;4952862;28;20074;-63
2023/04/14 03:50:22;;;;;;;4.40;2.00;;;7.40;81.30;;;;;;4953034;28;20039;-63
2023/04/14 03:52:49;;;;;;;5.50;2.15;;;7.40;81.50;;;;;;4954143;28;20042;-61
2023/04/14 03:55:17;;;;;;;5.50;2.17;;;7.50;81.60;;;;;;4955747;28;20043;-62
2023/04/14 03:57:44;;;;;;;5.35;2.35;;;7.50;81.70;;;;;;4954022;28;20475;-60
2023/04/14 04:00:12;;;;;;;7.72;2.50;;;7.50;81.60;;;;;;4954432;28;20094;-61
2023/04/14 04:02:39;;;;;;;3.70;2.25;;;7.50;82.60;;;;;;4952510;28;20054;-61
2023/04/14 04:05:06;;;;;;;5.18;2.40;;;7.40;81.50;;;;;;4954752;28;20109;-62
2023/04/14 04:07:34;;;;;;;3.78;2.20;;;7.40;81.90;;;;;;4935759;28;20528;-61
2023/04/14 04:10:03;;;;;;;4.25;2.28;;;7.40;82.00;;;;;;4953233;28;20442;-60
2023/04/14 04:12:30;;;;;;;4.97;2.38;;;7.40;82.00;;;;;;4950903;28;20407;-62
2023/04/14 04:14:56;;;;;;;3.45;2.08;;;7.40;82.00;;;;;;4952137;28;20147;-61
2023/04/14 04:17:23;;;;;;;5.03;2.83;;;7.40;82.10;;;;;;4953398;28;20601;-61
2023/04/14 04:19:49;;;;;;;8.38;4.72;;;7.40;82.20;;;;;;4951520;28;20490;-62
2023/04/14 04:22:18;;;;;;;6.25;3.13;;;7.40;82.00;;;;;;4950733;28;20563;-62
2023/04/14 04:24:44;;;;;;;4.80;2.55;;;7.40;82.00;;;;;;4950846;28;20042;-62
2023/04/14 04:27:10;;;;;;;6.00;2.65;;;7.40;82.00;;;;;;4953531;28;20035;-62
2023/04/14 04:29:37;;;;;;;4.45;2.70;;;7.60;82.00;;;;;;4954353;28;20136;-61
2023/04/14 04:32:05;;;;;;;4.22;2.63;;;7.40;81.90;;;;;;4954299;28;20050;-62
2023/04/14 04:34:31;;;;;;;5.25;2.80;;;7.50;82.00;;;;;;4955226;28;20043;-62
2023/04/14 04:37:00;;;;;;;3.53;2.63;;;7.50;81.90;;;;;;4955328;28;20617;-64
2023/04/14 04:39:26;;;;;;;6.18;2.60;;;7.50;81.90;;;;;;4957115;28;20533;-62
2023/04/14 04:42:03;;;;;;;3.47;2.38;;;7.50;81.70;;;;;;4957507;28;20039;-62
2023/04/14 04:44:31;;;;;;;3.90;2.38;;;7.50;81.90;;;;;;4960307;28;20034;-62
2023/04/14 04:46:57;;;;;;;7.85;2.83;;;7.40;81.60;;;;;;4959526;28;20039;-61
2023/04/14 04:49:22;;;;;;;4.70;2.80;;;7.50;81.70;;;;;;4961514;28;20038;-60
2023/04/14 04:51:48;;;;;;;6.88;3.30;;;7.50;81.80;;;;;;4946776;28;20081;-61
2023/04/14 04:54:14;;;;;;;4.30;2.50;;;7.50;81.70;;;;;;4961207;28;20035;-61
2023/04/14 04:56:40;;;;;;;7.03;2.40;;;7.50;81.70;;;;;;4962530;28;20039;-60
2023/04/14 04:59:06;;;;;;;3.78;2.13;;;7.50;81.60;;;;;;4962661;28;20112;-61
2023/04/14 05:01:32;;;;;;;4.40;2.33;;;7.50;81.60;;;;;;4961984;28;20043;-62
2023/04/14 05:03:57;;;;;;;4.20;2.22;;;7.50;81.40;;;;;;4960527;28;20090;-61
2023/04/14 05:06:23;;;;;;;5.25;2.60;;;7.50;81.30;;;;;;4962004;28;20126;-60
2023/04/14 05:08:52;;;;;;;4.68;2.30;;;7.50;81.20;;;;;;4960100;28;20236;-61
2023/04/14 05:11:18;;;;;;;8.25;2.22;;;7.50;81.20;;;;;;4958745;28;20038;-61
2023/04/14 05:13:44;;;;;;;3.50;2.10;;;7.40;80.90;;;;;;4960417;28;20027;-62
2023/04/14 05:16:13;;;;;;;6.63;2.20;;;7.40;80.80;;;;;;4960225;28;20042;-61
2023/04/14 05:18:40;;;;;;;5.57;2.40;;;7.40;80.80;;;;;;4962081;28;20430;-61
2023/04/14 05:21:08;;;;;;;7.47;2.47;;;7.40;80.80;;;;;;4960386;28;20038;-61
2023/04/14 05:23:35;;;;;;;6.95;2.45;;;7.40;80.70;;;;;;4960165;28;20502;-62
2023/04/14 05:26:01;;;;;;;6.15;2.33;;;7.40;80.50;;;;;;4958310;28;20050;-61
2023/04/14 05:28:27;;;;;;;7.07;2.35;;;7.30;80.30;;;;;;4959404;28;20133;-62
2023/04/14 05:30:53;;;;;;;7.85;2.45;;;7.40;80.30;;;;;;4959191;28;20566;-62
2023/04/14 05:33:18;;;;;;;4.18;2.28;;;7.30;80.30;;;;;;4960657;28;20042;-60
2023/04/14 05:35:45;;;;;;;6.70;2.63;;;7.30;80.30;;;;;;4959995;28;20411;-61
2023/04/14 05:38:11;;;;;;;7.22;2.38;;;7.30;80.30;;;;;;4959072;28;20130;-62
2023/04/14 05:40:37;;;;;;;6.35;2.30;;;7.30;80.50;;;;;;4962844;28;20159;-61
2023/04/14 05:43:03;;;;;;;6.40;2.20;;;7.30;80.60;;;;;;4959112;28;20042;-62
2023/04/14 05:45:29;;;;;;;7.50;2.30;;;7.30;80.60;;;;;;4958320;28;20472;-62
2023/04/14 05:47:54;;;;;;;10.30;2.70;;;7.30;80.40;;;;;;4957248;28;20142;-62
2023/04/14 05:50:23;;;;;;;7.20;2.20;;;7.30;80.30;;;;;;4959112;28;20138;-62
2023/04/14 05:52:50;;;;;;;6.75;2.25;;;7.30;81.20;;;;;;4959126;28;20043;-62
2023/04/14 05:55:16;;;;;;;6.72;2.30;;;7.30;80.10;;;;;;4956662;28;20122;-62
2023/04/14 05:57:42;;;;;;;6.53;2.70;;;7.30;80.10;;;;;;4958068;28;20519;-61
2023/04/14 06:00:09;;;;;;;7.07;2.42;;;7.40;80.10;;;;;;4956997;28;22348;-62
2023/04/14 06:02:35;;;;;;;5.22;2.13;;;7.40;80.20;;;;;;4958955;28;20035;-63
2023/04/14 06:05:01;;;;;;;8.13;2.63;;;7.40;80.30;;;;;;4959736;28;20073;-62
2023/04/14 06:07:27;;;;;;;7.22;2.30;;;7.40;80.20;;;;;;4962132;28;20038;-62
2023/04/14 06:09:53;;;;;;;10.25;2.80;;;7.50;80.30;;;;;;4958602;28;20110;-62
2023/04/14 06:12:19;;;;;;;7.55;3.15;;;7.50;81.20;;;;;;4962590;28;20523;-62
2023/04/14 06:14:45;;;;;;;5.50;2.47;;;7.50;80.30;;;;;;4962224;28;20032;-61
2023/04/14 06:17:10;;;;;;;6.10;2.50;;;7.60;80.10;;;;;;4961186;28;20541;-63
2023/04/14 06:19:36;;;;;;;8.32;2.60;;;7.60;80.00;;;;;;4960489;28;20039;-62
2023/04/14 06:22:02;;;;;;;4.70;2.53;;;7.60;80.00;;;;;;4960146;28;20031;-62
2023/04/14 06:24:27;;;;;;;8.80;2.58;;;7.60;79.80;;;;;;4960296;28;20047;-63
2023/04/14 06:26:53;;;;;;;9.13;2.53;;;7.70;79.60;;;;;;4958140;28;20424;-61
2023/04/14 06:29:18;;;;;;;8.75;2.78;;;7.70;79.60;;;;;;4960100;28;20038;-61
2023/04/14 06:31:44;;;;;;;7.40;2.47;;;7.70;79.40;;;;;;4959450;28;20042;-62
2023/04/14 06:34:09;;;;;;;8.27;2.53;;;7.70;79.20;;;;;;4960075;28;20612;-63
2023/04/14 06:36:35;;;;;;;6.13;2.60;;;7.70;79.10;;;;;;4959184;28;20102;-63
2023/04/14 06:39:03;;;;;;;7.30;2.65;;;7.70;78.90;;;;;;4960578;28;20027;-63
2023/04/14 06:41:29;;;;;;;4.15;2.28;;;7.70;78.90;;;;;;4959037;28;20043;-62
2023/04/14 06:43:55;;;;;;;5.13;2.22;;;7.70;79.00;;;;;;4959457;28;20039;-63
2023/04/14 06:46:20;;;;;;;6.22;2.38;;;7.60;79.10;;;;;;4957859;28;20098;-63
2023/04/14 06:48:46;;;;;;;7.25;2.25;;;7.60;79.10;;;;;;4957424;28;20035;-63
2023/04/14 06:51:12;;;;;;;5.32;2.15;;;7.70;79.10;;;;;;4958489;28;20264;-62
2023/04/14 06:53:38;;;;;;;5.40;2.10;;;7.60;79.00;;;;;;4959709;28;20118;-60
2023/04/14 06:56:05;;;;;;;4.35;1.88;;;7.60;79.10;;;;;;4957634;28;20118;-61
2023/04/14 06:58:31;;;;;;;8.15;2.20;;;7.70;78.90;;;;;;4958538;28;20067;-63
2023/04/14 07:00:58;;;;;;;4.47;1.90;;;7.70;78.80;;;;;;4957403;28;20066;-63
2023/04/14 07:03:24;;;;;;;9.32;2.45;;;7.70;79.10;;;;;;4958515;28;20130;-62
2023/04/14 07:05:50;;;;;;;7.18;2.47;;;7.70;79.20;;;;;;4958488;28;20315;-62
2023/04/14 07:08:17;;;;;;;6.18;1.75;;;7.80;78.90;;;;;;4960182;28;20030;-62
2023/04/14 07:10:43;;;;;;;9.45;1.90;;;7.80;78.70;;;;;;4959291;28;20046;-62
2023/04/14 07:13:08;;;;;;;7.97;2.10;;;7.80;78.00;;;;;;4959284;28;20042;-62
2023/04/14 07:15:34;;;;;;;8.25;1.95;;;7.90;77.80;;;;;;4957765;28;20049;-62
2023/04/14 07:18:00;;;;;;;7.18;2.00;;;8.00;77.80;;;;;;4957243;28;20050;-60
2023/04/14 07:20:25;;;;;;;9.02;2.25;;;7.90;77.30;;;;;;4959978;28;20466;-63
2023/04/14 07:22:51;;;;;;;9.10;1.95;;;8.00;78.00;;;;;;4958794;28;20035;-63
2023/04/14 07:25:17;;;;;;;7.43;1.92;;;8.00;77.50;;;;;;4959793;28;20503;-63
2023/04/14 07:27:43;;;;;;;7.75;1.85;;;8.00;77.90;;;;;;4958276;28;20541;-63
2023/04/14 07:30:09;;;;;;;9.45;2.15;;;8.10;77.70;;;;;;4957546;28;20043;-63
2023/04/14 07:32:34;;;;;;;9.95;2.50;;;8.20;77.30;;;;;;4957477;28;20039;-63
2023/04/14 07:35:00;;;;;;;4.05;1.58;;;8.20;77.70;;;;;;4959401;28;20352;-64
2023/04/14 07:37:25;;;;;;;7.40;1.70;;;8.30;77.60;;;;;;4958145;28;20041;-63
2023/04/14 07:39:51;;;;;;;6.47;1.63;;;8.40;77.30;;;;;;4955711;28;20042;-63
2023/04/14 07:42:17;;;;;;;5.72;1.70;;;8.40;77.30;;;;;;4956540;28;20400;-63
2023/04/14 07:44:42;;;;;;;7.80;1.98;;;8.60;77.00;;;;;;4957129;28;20038;-63
2023/04/14 07:47:08;;;;;;;7.35;2.03;;;8.70;76.10;;;;;;4956263;28;20538;-63
2023/04/14 07:49:35;;;;;;;7.70;2.10;;;8.70;75.30;;;;;;4959682;28;20173;-63
2023/04/14 07:52:01;;;;;;;3.80;1.58;;;8.80;75.60;;;;;;4959244;28;20043;-63
2023/04/14 07:54:27;;;;;;;7.65;2.13;;;8.80;75.60;;;;;;4957637;28;20035;-64
2023/04/14 07:56:52;;;;;;;2.97;1.33;;;8.80;75.40;;;;;;4957808;28;20058;-63
2023/04/14 07:59:18;;;;;;;7.10;1.60;;;8.90;75.60;;;;;;4957273;28;20519;-63
2023/04/14 08:01:45;;;;;;;7.18;1.52;;;8.90;75.60;;;;;;4956278;28;20054;-63
2023/04/14 08:04:11;;;;;;;7.40;1.80;;;9.00;75.70;;;;;;4958217;28;20035;-63
2023/04/14 08:06:36;;;;;;;8.65;1.60;;;9.00;75.40;;;;;;4961120;28;20043;-63
2023/04/14 08:09:02;;;;;;;7.88;1.65;;;9.10;75.30;;;;;;4964002;28;20121;-62
2023/04/14 08:11:28;;;;;;;8.18;1.50;;;9.20;74.80;;;;;;4965694;28;20463;-60
2023/04/14 08:13:53;;;;;;;8.35;1.80;;;9.20;74.00;;;;;;4963753;28;20525;-62
2023/04/14 08:16:19;;;;;;;6.15;1.48;;;9.20;74.00;;;;;;4963301;28;20126;-63
2023/04/14 08:18:44;;;;;;;6.05;1.40;;;9.30;74.10;;;;;;4964397;28;20063;-63
2023/04/14 08:21:10;;;;;;;6.47;1.33;;;9.40;74.10;;;;;;4961916;28;20113;-62
2023/04/14 08:23:36;;;;;;;6.55;1.50;;;9.50;74.40;;;;;;4962876;28;20038;-63
2023/04/14 08:26:03;;;;;;;8.05;1.27;;;9.50;74.40;;;;;;4961539;28;20043;-64
2023/04/14 08:28:29;;;;;;;9.98;1.70;;;9.70;74.00;;;;;;4963041;28;20541;-62
2023/04/14 08:30:55;;;;;;;3.92;1.40;;;9.70;73.50;;;;;;4960943;28;20153;-62
2023/04/14 08:33:20;;;;;;;4.88;1.58;;;9.80;73.40;;;;;;4963803;28;20038;-61
2023/04/14 08:35:46;;;;;;;6.57;1.30;;;9.90;73.00;;;;;;4962571;28;20054;-63
2023/04/14 08:38:12;;;;;;;7.68;1.67;;;10.00;73.00;;;;;;4961691;28;20086;-62
2023/04/14 08:40:42;;;;;;;9.45;1.20;;;10.10;72.10;;;;;;4962142;28;20062;-61
2023/04/14 08:43:08;;;;;;;7.18;1.52;;;10.20;72.00;;;;;;4962780;28;20376;-62
2023/04/14 08:45:34;;;;;;;7.28;1.40;;;10.30;71.10;;;;;;4943490;28;20450;-65
2023/04/14 08:48:02;;;;;;;6.75;1.60;;;10.30;70.20;;;;;;4961700;28;20362;-64
2023/04/14 08:50:35;;;;;;;5.25;1.05;;;10.40;69.20;;;;;;4963276;28;20039;-63
2023/04/14 08:53:03;;;;;;;4.93;1.13;;;10.50;68.60;;;;;;4962611;28;20031;-61
2023/04/14 08:55:29;;;;;;;8.23;1.40;;;10.50;68.80;;;;;;4963884;28;20057;-63
2023/04/14 08:57:55;;;;;;;4.40;1.45;;;10.60;67.30;;;;;;4961828;28;20043;-63
2023/04/14 09:00:21;;;;;;;6.38;1.10;;;10.60;66.40;;;;;;4962752;28;20049;-63
2023/04/14 09:02:47;;;;;;;4.75;1.05;;;10.60;66.80;;;;;;4961241;28;20039;-61
2023/04/14 09:05:14;;;;;;;3.70;1.30;;;10.70;66.60;;;;;;4963672;28;20471;-64
2023/04/14 09:07:41;;;;;;;5.80;1.30;;;10.70;66.60;;;;;;4962708;28;20495;-61
2023/04/14 09:10:08;;;;;;;6.85;1.40;;;10.70;65.70;;;;;;4962975;28;20632;-61
2023/04/14 09:12:37;;;;;;;4.18;1.30;;;10.80;66.30;;;;;;4959905;28;20035;-63
2023/04/14 09:15:03;;;;;;;9.25;1.40;;;10.80;67.10;;;;;;4960833;28;20041;-63
2023/04/14 09:17:30;;;;;;;5.20;1.40;;;10.80;66.70;;;;;;4958563;28;20078;-63
2023/04/14 09:19:56;;;;;;;6.28;1.30;;;10.90;67.10;;;;;;4960647;28;20053;-63
2023/04/14 09:22:21;;;;;;;4.65;1.20;;;11.00;64.80;;;;;;4963776;28;20039;-63
2023/04/14 09:24:47;;;;;;;3.80;1.13;;;11.10;65.70;;;;;;4962499;28;20049;-63
2023/04/14 09:27:14;;;;;;;6.50;1.40;;;11.20;66.00;;;;;;4960485;28;20038;-63
2023/04/14 09:29:40;;;;;;;7.00;1.70;;;11.20;65.20;;;;;;4962113;28;20503;-64
2023/04/14 09:32:06;;;;;;;4.47;1.00;;;11.40;65.50;;;;;;4962188;28;20042;-63
2023/04/14 09:34:32;;;;;;;4.30;1.48;;;11.40;65.70;;;;;;4958198;28;20178;-63
2023/04/14 09:37:08;;;;;;;6.10;1.38;;;11.50;63.80;;;;;;4961314;28;20113;-61
2023/04/14 09:39:35;;;;;;;5.20;1.10;;;11.60;64.40;;;;;;4960670;28;20043;-64
2023/04/14 09:42:02;;;;;;;6.43;1.00;;;11.70;63.80;;;;;;4962233;28;20477;-62
2023/04/14 09:44:29;;;;;;;4.25;1.08;;;11.80;63.40;;;;;;4960283;28;20035;-63
2023/04/14 09:47:05;;;;;;;5.65;1.27;;;11.90;62.40;;;;;;4961996;28;20054;-63
2023/04/14 09:49:31;;;;;;;4.78;1.20;;;11.80;62.30;;;;;;4963027;28;20533;-63
2023/04/14 09:52:06;;;;;;;5.53;1.48;;;11.90;62.20;;;;;;4959057;28;20083;-63
2023/04/14 09:54:32;;;;;;;5.22;1.30;;;11.90;62.80;;;;;;4960386;28;20601;-64
2023/04/14 09:57:00;;;;;;;4.90;1.13;;;12.00;63.90;;;;;;4960061;28;20046;-62
2023/04/14 09:59:37;;;;;;;4.68;1.30;;;12.10;63.30;;;;;;4960934;28;20090;-63
2023/04/14 10:02:05;;;;;;;3.70;1.13;;;12.20;61.70;;;;;;4960305;28;20300;-63
2023/04/14 10:04:31;;;;;;;4.93;1.63;;;12.30;60.50;;;;;;4957916;28;20034;-62
2023/04/14 10:06:57;;;;;;;6.32;1.55;;;12.40;58.60;;;;;;4962013;28;20387;-63
2023/04/14 10:09:27;;;;;;;7.15;1.27;;;12.30;58.40;;;;;;4959018;28;20502;-64
2023/04/14 10:12:10;;;;;;;3.28;0.90;;;12.40;58.90;;;;;;4959960;28;20031;-64
2023/04/14 10:14:39;;;;;;;5.75;1.10;;;12.30;56.70;;;;;;4960675;28;20109;-63
2023/04/14 10:17:08;;;;;;;2.97;0.80;;;12.30;58.90;;;;;;4958925;28;20059;-63
2023/04/14 10:19:37;;;;;;;4.07;0.95;;;12.30;58.80;;;;;;4961714;28;20039;-63
2023/04/14 10:22:04;;;;;;;5.57;1.30;;;12.40;59.10;;;;;;4957049;28;20035;-62
2023/04/14 10:24:31;;;;;;;3.08;0.85;;;12.40;58.70;;;;;;4958116;28;20042;-63
2023/04/14 10:27:01;;;;;;;3.47;1.20;;;12.50;60.10;;;;;;4960077;28;20034;-63
2023/04/14 10:29:28;;;;;;;4.38;1.00;;;12.60;59.30;;;;;;4958806;28;20039;-63
2023/04/14 10:32:14;;;;;;;3.85;1.20;;;12.70;58.00;;;;;;4958389;28;20288;-62
2023/04/14 10:34:58;;;;;;;3.45;0.90;;;12.70;56.00;;;;;;4960028;28;20102;-63
2023/04/14 10:37:24;;;;;;;3.00;0.80;;;12.80;55.00;;;;;;4959006;28;20031;-63
2023/04/14 10:39:55;;;;;;;1.80;0.82;;;12.90;57.00;;;;;;4958693;28;20042;-63
2023/04/14 10:42:20;;;;;;;6.63;1.50;;;12.90;55.90;;;;;;4956060;28;20066;-63
2023/04/14 10:45:02;;;;;;;3.30;1.00;;;12.90;54.40;;;;;;4960696;28;20062;-61
2023/04/14 10:47:30;;;;;;;3.58;1.08;;;13.00;55.20;;;;;;4959148;28;20046;-63
2023/04/14 10:49:57;;;;;;;3.83;1.00;;;13.00;56.40;;;;;;4960608;28;20586;-62
2023/04/14 10:52:24;;;;;;;5.53;1.08;;;13.10;56.20;;;;;;4959130;28;20179;-64
2023/04/14 10:55:06;;;;;;;4.28;0.80;;;13.10;56.80;;;;;;4957753;28;20035;-64
2023/04/14 10:57:42;;;;;;;3.60;1.13;;;13.20;56.40;;;;;;4958524;28;20678;-63
2023/04/14 11:00:23;;;;;;;3.90;1.10;;;13.20;55.90;;;;;;4957612;28;20046;-62
2023/04/14 11:03:01;;;;;;;6.07;1.20;;;13.30;55.00;;;;;;4960169;28;20038;-62
2023/04/14 11:05:33;;;;;;;4.75;1.00;;;13.30;54.50;;;;;;4959842;28;20427;-63
2023/04/14 11:08:06;;;;;;;6.88;1.42;;;13.40;54.70;;;;;;4959614;28;20053;-64
2023/04/14 11:10:32;;;;;;;5.05;1.30;;;13.40;54.80;;;;;;4959041;28;20195;-64
2023/04/14 11:13:06;;;;;;;4.75;1.10;;;13.30;54.30;;;;;;4959958;28;20507;-64
2023/04/14 11:15:43;;;;;;;4.22;1.02;;;13.30;54.20;;;;;;4960048;28;20039;-63
2023/04/14 11:18:31;;;;;;;3.38;0.90;;;13.20;53.40;;;;;;4959415;28;20035;-64
2023/04/14 11:21:12;;;;;;;2.78;0.77;;;13.20;53.00;;;;;;4959307;28;20027;-63
2023/04/14 11:23:38;;;;;;;6.10;1.40;;;13.10;52.80;;;;;;4959396;28;20031;-63
2023/04/14 11:26:08;;;;;;;3.72;1.25;;;13.20;54.60;;;;;;4960856;28;20054;-62
2023/04/14 11:28:39;;;;;;;3.95;1.10;;;13.20;55.30;;;;;;4958035;28;20047;-63
2023/04/14 11:31:11;;;;;;;3.70;0.93;;;13.20;53.40;;;;;;4959890;28;20047;-64
2023/04/14 11:33:40;;;;;;;2.80;0.73;;;13.30;52.40;;;;;;4961301;28;20552;-64
2023/04/14 11:36:08;;;;;;;2.00;0.70;;;13.30;52.40;;;;;;4957664;28;20042;-64
2023/04/14 11:38:34;;;;;;;4.80;0.95;;;13.30;53.00;;;;;;4957023;28;20034;-63
2023/04/14 11:41:01;;;;;;;3.40;0.95;;;13.30;52.60;;;;;;4961134;28;20102;-63
2023/04/14 11:43:32;;;;;;;3.15;0.73;;;13.30;52.90;;;;;;4958016;28;20063;-64
2023/04/14 11:46:03;;;;;;;2.33;0.70;;;13.30;51.50;;;;;;4958572;28;20066;-64
2023/04/14 11:48:29;;;;;;;4.07;0.90;;;13.20;52.00;;;;;;4726195;28;6796431;-64
2023/04/14 11:51:01;;;;;;;1.90;0.70;;;13.20;52.30;;;;;;4959056;28;20862;-64
2023/04/14 11:53:30;;;;;;;2.83;0.60;;;13.20;52.60;;;;;;4959468;28;20046;-64
2023/04/14 11:55:56;;;;;;;3.17;0.93;;;13.10;52.20;;;;;;4960278;28;20046;-63
2023/04/14 11:58:24;;;;;;;2.55;0.80;;;13.10;53.00;;;;;;4958860;28;20503;-63
2023/04/14 12:00:51;;;;;;;3.65;1.02;;;13.20;51.80;;;;;;4956298;28;20106;-63
2023/04/14 12:03:17;;;;;;;4.03;1.02;;;13.20;52.00;;;;;;4959434;28;20062;-63
2023/04/14 12:05:43;;;;;;;3.83;0.90;;;13.20;52.50;;;;;;4958308;28;20031;-62
2023/04/14 12:08:09;;;;;;;2.63;0.90;;;13.20;51.50;;;;;;4958368;28;20047;-62
2023/04/14 12:10:36;;;;;;;2.35;0.80;;;13.20;51.10;;;;;;4960224;28;20030;-63
2023/04/14 12:13:04;;;;;;;4.22;0.70;;;13.30;52.20;;;;;;4957431;28;20050;-63
2023/04/14 12:15:40;;;;;;;3.00;0.90;;;13.30;51.60;;;;;;4955697;28;20031;-63
2023/04/14 12:18:12;;;;;;;2.92;0.88;;;13.30;51.90;;;;;;4958056;28;20340;-62
2023/04/14 12:20:46;;;;;;;3.22;0.80;;;13.40;51.00;;;;;;4958008;28;20384;-62
2023/04/14 12:23:12;;;;;;;3.25;0.90;;;13.40;51.30;;;;;;4957980;28;20067;-64
2023/04/14 12:25:38;;;;;;;3.85;1.35;;;13.50;51.80;;;;;;4956091;28;20101;-64
2023/04/14 12:28:07;;;;;;;4.50;0.93;;;13.60;52.30;;;;;;4956011;28;20074;-64
2023/04/14 12:30:34;;;;;;;1.27;1.00;;;13.70;50.30;;;;;;4957942;28;20043;-64
2023/04/14 12:33:11;;;;;;;1.48;0.65;;;13.70;51.10;;;;;;4957666;28;20517;-63
2023/04/14 12:35:37;;;;;;;1.35;0.70;;;13.80;51.00;;;;;;4958461;28;20035;-64
2023/04/14 12:38:12;;;;;;;2.08;0.85;;;13.80;49.90;;;;;;4956623;28;20069;-62
2023/04/14 12:40:48;;;;;;;3.58;0.77;;;13.90;50.10;;;;;;4957326;28;20043;-64
2023/04/14 12:43:15;;;;;;;2.88;0.70;;;13.80;49.70;;;;;;4958697;28;20039;-64
2023/04/14 12:45:46;;;;;;;2.22;0.63;;;13.80;51.70;;;;;;4955435;28;20557;-64
2023/04/14 12:48:13;;;;;;;3.08;0.68;;;13.80;52.10;;;;;;4957944;28;20430;-63
2023/04/14 12:50:39;;;;;;;3.50;1.10;;;13.90;52.70;;;;;;4958301;28;20027;-62
2023/04/14 12:53:24;;;;;;;3.17;1.00;;;13.90;51.10;;;;;;4960749;28;20093;-63
2023/04/14 12:56:18;;;;;;;2.30;0.90;;;13.90;49.40;;;;;;4961890;28;20143;-62
2023/04/14 12:58:47;;;;;;;2.13;0.80;;;13.80;50.70;;;;;;4958579;28;20541;-63